Time;durP1;ratioP1;P1;durP2;ratioP2;P2;SDS_P1;SDS_P2;PMS_P1;PMS_P2;Temp;Humidity;BMP_temperature;BMP_pressure;BME280_temperature;BME280_humidity;BME280_pressure;Samples;Min_cycle;Max_cycle;Signal;HPM_P1;HPM_P2
2022/04/15 00:00:07;;;;;;;4.00;2.37;;;9.60;99.90;;;;;;5029577;28;20263;-70
2022/04/15 00:02:34;;;;;;;3.83;2.40;;;9.60;99.90;;;;;;5020202;28;20279;-70
2022/04/15 00:05:00;;;;;;;4.90;2.20;;;9.60;99.90;;;;;;5038085;28;20180;-70
2022/04/15 00:07:26;;;;;;;4.33;2.40;;;9.60;99.90;;;;;;5031607;28;20532;-70
2022/04/15 00:09:52;;;;;;;7.43;2.57;;;9.60;99.90;;;;;;5044367;28;20723;-70
2022/04/15 00:12:27;;;;;;;5.70;2.67;;;9.60;99.90;;;;;;5040485;28;20311;-70
2022/04/15 00:14:55;;;;;;;3.47;2.50;;;9.50;99.90;;;;;;5035494;28;20230;-70
2022/04/15 00:17:22;;;;;;;7.83;2.50;;;9.60;99.90;;;;;;5035858;28;20259;-70
2022/04/15 00:19:48;;;;;;;3.17;2.37;;;9.60;99.90;;;;;;5031846;28;20246;-70
2022/04/15 00:22:14;;;;;;;3.17;1.97;;;9.60;99.90;;;;;;5045976;28;20273;-70
2022/04/15 00:24:41;;;;;;;5.53;2.30;;;9.50;99.90;;;;;;5029279;28;20676;-70
2022/04/15 00:27:07;;;;;;;5.50;2.23;;;9.50;99.90;;;;;;5041540;28;20278;-70
2022/04/15 00:29:34;;;;;;;5.03;2.30;;;9.50;99.90;;;;;;5045174;28;20262;-70
2022/04/15 00:32:00;;;;;;;3.50;2.13;;;9.50;99.90;;;;;;5029582;28;20298;-70
2022/04/15 00:34:26;;;;;;;6.50;2.40;;;9.50;99.90;;;;;;5037782;28;20195;-71
2022/04/15 00:36:52;;;;;;;3.27;2.33;;;9.50;99.90;;;;;;5023217;28;20183;-70
2022/04/15 00:39:19;;;;;;;3.47;2.47;;;9.50;99.90;;;;;;5048580;28;20309;-70
2022/04/15 00:41:45;;;;;;;4.20;2.20;;;9.60;99.90;;;;;;5046468;28;20579;-70
2022/04/15 00:44:11;;;;;;;5.47;2.57;;;9.50;99.90;;;;;;5044613;28;20568;-70
2022/04/15 00:46:38;;;;;;;2.53;2.30;;;9.50;99.90;;;;;;5027677;28;20718;-70
2022/04/15 00:49:05;;;;;;;3.73;2.50;;;9.50;99.90;;;;;;5020394;28;20187;-70
2022/04/15 00:51:36;;;;;;;3.07;2.13;;;9.50;99.90;;;;;;5043888;28;20297;-70
2022/04/15 00:54:03;;;;;;;6.33;2.60;;;9.50;99.90;;;;;;5027816;28;20195;-70
2022/04/15 00:56:36;;;;;;;3.97;2.63;;;9.50;99.90;;;;;;5029280;28;20196;-70
2022/04/15 00:59:05;;;;;;;3.13;2.50;;;9.50;99.90;;;;;;5042430;28;20279;-70
2022/04/15 01:01:32;;;;;;;4.33;2.20;;;9.50;99.90;;;;;;5012495;28;20188;-71
2022/04/15 01:04:03;;;;;;;3.60;2.33;;;9.50;99.90;;;;;;5032525;28;20202;-70
2022/04/15 01:06:31;;;;;;;3.60;2.10;;;9.40;99.90;;;;;;5039107;28;20707;-70
2022/04/15 01:09:00;;;;;;;5.17;2.30;;;9.40;99.90;;;;;;5014776;28;20184;-70
2022/04/15 01:11:30;;;;;;;3.37;2.40;;;9.40;99.90;;;;;;5027743;28;20976;-70
2022/04/15 01:14:00;;;;;;;5.60;2.50;;;9.40;99.90;;;;;;5043002;28;20706;-70
2022/04/15 01:16:30;;;;;;;4.93;2.37;;;9.40;99.90;;;;;;5029431;28;20207;-70
2022/04/15 01:18:56;;;;;;;3.87;2.50;;;9.30;99.90;;;;;;5035199;28;20218;-70
2022/04/15 01:21:30;;;;;;;4.20;2.50;;;9.30;99.90;;;;;;5024802;28;20187;-70
2022/04/15 01:23:58;;;;;;;5.30;2.47;;;9.30;99.90;;;;;;5045209;28;20186;-70
2022/04/15 01:26:24;;;;;;;6.63;2.67;;;9.30;99.90;;;;;;5042768;28;20192;-70
2022/04/15 01:28:51;;;;;;;4.50;2.70;;;9.20;99.90;;;;;;5047322;28;20194;-70
2022/04/15 01:31:17;;;;;;;3.90;2.50;;;9.20;99.90;;;;;;5036231;28;20231;-70
2022/04/15 01:33:43;;;;;;;4.03;2.87;;;9.20;99.90;;;;;;5051207;28;20643;-70
2022/04/15 01:36:12;;;;;;;4.73;2.43;;;9.20;99.90;;;;;;5053408;28;20198;-70
2022/04/15 01:38:39;;;;;;;4.37;2.60;;;9.20;99.90;;;;;;5042877;28;20668;-70
2022/04/15 01:41:05;;;;;;;5.97;3.10;;;9.20;99.90;;;;;;5036958;28;20188;-70
2022/04/15 01:43:31;;;;;;;3.13;2.67;;;9.20;99.90;;;;;;5046666;28;20291;-70
2022/04/15 01:45:58;;;;;;;4.40;2.70;;;9.20;99.90;;;;;;5039229;28;20238;-70
2022/04/15 01:48:24;;;;;;;2.70;2.37;;;9.20;99.90;;;;;;5032508;28;20194;-70
2022/04/15 01:50:50;;;;;;;4.77;2.80;;;9.20;99.90;;;;;;5028900;28;20291;-70
2022/04/15 01:53:17;;;;;;;2.60;2.40;;;9.10;99.90;;;;;;5040500;28;20184;-70
2022/04/15 01:55:43;;;;;;;4.50;2.70;;;9.10;99.90;;;;;;5044251;28;20644;-70
2022/04/15 01:58:09;;;;;;;4.03;2.70;;;9.00;99.90;;;;;;5041321;28;20252;-70
2022/04/15 02:00:35;;;;;;;5.27;2.43;;;9.00;99.90;;;;;;5027089;28;20236;-70
2022/04/15 02:03:02;;;;;;;4.93;2.63;;;9.00;99.90;;;;;;5043209;28;20196;-70
2022/04/15 02:05:28;;;;;;;3.87;2.40;;;9.00;99.90;;;;;;5041077;28;20217;-70
2022/04/15 02:07:54;;;;;;;3.13;2.60;;;9.00;99.90;;;;;;5037202;28;20209;-70
2022/04/15 02:10:20;;;;;;;4.67;2.67;;;8.90;99.90;;;;;;5046501;28;20189;-70
2022/04/15 02:12:47;;;;;;;3.67;2.53;;;9.00;99.90;;;;;;5063365;28;20737;-70
2022/04/15 02:15:13;;;;;;;6.33;2.93;;;9.00;99.90;;;;;;5027915;28;20218;-70
2022/04/15 02:17:39;;;;;;;3.67;2.57;;;9.00;99.90;;;;;;5019863;28;20193;-71
2022/04/15 02:20:06;;;;;;;3.60;2.50;;;9.00;99.90;;;;;;5034334;28;20671;-70
2022/04/15 02:22:33;;;;;;;5.47;3.13;;;9.10;99.90;;;;;;5044584;28;20676;-70
2022/04/15 02:25:00;;;;;;;4.47;3.10;;;9.10;99.90;;;;;;5029300;28;20246;-70
2022/04/15 02:27:27;;;;;;;5.50;2.90;;;9.10;99.90;;;;;;5029007;28;20197;-70
2022/04/15 02:29:53;;;;;;;3.83;3.00;;;9.10;99.90;;;;;;5050975;28;20241;-70
2022/04/15 02:32:19;;;;;;;6.53;3.00;;;9.10;99.90;;;;;;5034434;28;20255;-70
2022/04/15 02:34:45;;;;;;;4.40;2.90;;;9.10;99.90;;;;;;5050270;28;20196;-70
2022/04/15 02:37:12;;;;;;;3.93;2.53;;;9.10;99.90;;;;;;5039719;28;20184;-70
2022/04/15 02:39:38;;;;;;;4.60;3.27;;;9.00;99.90;;;;;;5037509;28;20242;-70
2022/04/15 02:42:05;;;;;;;4.10;2.67;;;9.00;99.90;;;;;;5032194;28;20687;-70
2022/04/15 02:44:31;;;;;;;5.20;3.20;;;9.00;99.90;;;;;;5034525;28;20203;-70
2022/04/15 02:46:58;;;;;;;5.77;2.97;;;9.00;99.90;;;;;;5035228;28;20192;-70
2022/04/15 02:49:27;;;;;;;8.23;3.00;;;9.00;99.90;;;;;;5043421;28;20687;-70
2022/04/15 02:51:55;;;;;;;3.53;2.73;;;9.00;99.90;;;;;;5037818;28;20203;-70
2022/04/15 02:54:21;;;;;;;4.40;3.00;;;9.00;99.90;;;;;;5039765;28;20184;-70
2022/04/15 02:56:48;;;;;;;5.07;2.60;;;9.00;99.90;;;;;;5044732;28;20263;-70
2022/04/15 02:59:16;;;;;;;3.07;2.77;;;8.90;99.90;;;;;;5041540;28;20188;-71
2022/04/15 03:01:45;;;;;;;5.33;3.03;;;8.90;99.90;;;;;;5038244;28;20196;-70
2022/04/15 03:04:11;;;;;;;4.63;3.23;;;8.90;99.90;;;;;;5050040;28;20200;-70
2022/04/15 03:06:38;;;;;;;5.30;3.23;;;8.90;99.90;;;;;;5041847;28;20286;-70
2022/04/15 03:09:05;;;;;;;6.50;2.93;;;8.80;99.90;;;;;;5041263;28;20191;-70
2022/04/15 03:11:32;;;;;;;4.33;3.20;;;8.90;99.90;;;;;;5064874;28;20567;-70
2022/04/15 03:13:58;;;;;;;4.23;2.80;;;8.80;99.90;;;;;;5035714;28;20226;-70
2022/04/15 03:16:25;;;;;;;4.00;2.70;;;8.80;99.90;;;;;;5036398;28;20218;-70
2022/04/15 03:18:51;;;;;;;3.53;2.97;;;8.80;99.90;;;;;;5036475;28;20192;-70
2022/04/15 03:21:17;;;;;;;3.77;3.00;;;8.80;99.90;;;;;;5041108;28;20216;-70
2022/04/15 03:23:43;;;;;;;3.90;3.03;;;8.80;99.90;;;;;;5038895;28;20191;-71
2022/04/15 03:26:10;;;;;;;6.40;2.80;;;8.80;99.90;;;;;;5030945;28;20180;-70
2022/04/15 03:28:37;;;;;;;5.63;3.33;;;8.80;99.90;;;;;;5046538;28;20196;-70
2022/04/15 03:31:05;;;;;;;6.60;3.07;;;8.80;99.90;;;;;;5030919;28;20560;-70
2022/04/15 03:33:32;;;;;;;7.37;3.40;;;8.80;99.90;;;;;;5037857;28;20299;-70
2022/04/15 03:35:59;;;;;;;6.90;3.63;;;8.80;99.90;;;;;;5027936;28;20188;-70
2022/04/15 03:38:25;;;;;;;5.30;3.13;;;8.80;99.90;;;;;;5042835;28;20191;-70
2022/04/15 03:40:52;;;;;;;4.07;2.87;;;8.80;99.90;;;;;;5028917;28;20187;-70
2022/04/15 03:43:18;;;;;;;4.43;3.00;;;8.90;99.90;;;;;;5053798;28;20195;-70
2022/04/15 03:45:44;;;;;;;4.60;2.83;;;8.90;99.90;;;;;;5036300;28;20196;-70
2022/04/15 03:48:12;;;;;;;8.70;3.30;;;9.00;99.90;;;;;;5046495;28;20231;-70
2022/04/15 03:50:38;;;;;;;5.77;3.30;;;9.00;99.90;;;;;;5034277;28;20280;-70
2022/04/15 03:53:05;;;;;;;4.90;2.87;;;8.90;99.90;;;;;;5034976;28;20278;-70
2022/04/15 03:55:31;;;;;;;9.43;3.00;;;8.90;99.90;;;;;;5039353;28;20215;-70
2022/04/15 03:57:57;;;;;;;5.47;3.10;;;9.00;99.90;;;;;;5048816;28;20209;-70
2022/04/15 04:00:25;;;;;;;4.30;3.10;;;8.90;99.90;;;;;;5040114;28;20226;-70
2022/04/15 04:02:54;;;;;;;5.27;3.10;;;8.90;99.90;;;;;;5045519;28;20202;-70
2022/04/15 04:05:24;;;;;;;4.23;3.37;;;9.00;99.90;;;;;;5034682;28;20383;-70
2022/04/15 04:07:51;;;;;;;4.67;3.10;;;8.90;99.90;;;;;;5030278;28;20203;-70
2022/04/15 04:10:17;;;;;;;4.00;2.93;;;9.00;99.90;;;;;;5030737;28;20192;-70
2022/04/15 04:12:48;;;;;;;7.43;3.23;;;9.00;99.90;;;;;;5043424;28;20227;-70
2022/04/15 04:15:15;;;;;;;5.33;3.40;;;9.00;99.90;;;;;;5031563;28;20266;-70
2022/04/15 04:17:41;;;;;;;5.43;3.40;;;9.10;99.90;;;;;;5050097;28;20719;-70
2022/04/15 04:20:10;;;;;;;5.70;4.10;;;9.10;99.90;;;;;;5038290;28;20196;-70
2022/04/15 04:22:38;;;;;;;6.97;4.70;;;9.10;99.90;;;;;;5045839;28;20636;-69
2022/04/15 04:25:08;;;;;;;6.43;5.17;;;9.10;99.90;;;;;;5038157;28;20195;-70
2022/04/15 04:27:40;;;;;;;9.60;3.90;;;9.10;99.90;;;;;;5035689;28;20354;-70
2022/04/15 04:30:09;;;;;;;5.60;3.37;;;9.10;99.90;;;;;;5046285;28;20198;-70
2022/04/15 04:32:36;;;;;;;5.73;3.40;;;9.20;99.90;;;;;;5026625;28;20356;-70
2022/04/15 04:35:05;;;;;;;4.70;3.10;;;9.20;99.90;;;;;;5043016;28;20817;-70
2022/04/15 04:37:31;;;;;;;3.83;2.90;;;9.30;99.90;;;;;;5033652;28;20537;-70
2022/04/15 04:39:58;;;;;;;3.47;2.97;;;9.30;99.90;;;;;;5037648;28;20234;-70
2022/04/15 04:42:26;;;;;;;6.20;3.83;;;9.30;99.90;;;;;;5020961;28;20206;-70
2022/04/15 04:44:53;;;;;;;4.60;3.47;;;9.30;99.90;;;;;;5042901;28;20184;-70
2022/04/15 04:47:21;;;;;;;4.20;3.80;;;9.40;99.90;;;;;;5030116;28;20268;-70
2022/04/15 04:49:48;;;;;;;5.80;3.70;;;9.50;99.90;;;;;;5036803;28;20196;-70
2022/04/15 04:52:15;;;;;;;5.53;3.57;;;9.50;99.90;;;;;;5038762;28;20210;-70
2022/04/15 04:54:41;;;;;;;4.07;3.00;;;9.60;99.90;;;;;;5027389;28;20195;-70
2022/04/15 04:57:08;;;;;;;4.43;3.10;;;9.60;99.90;;;;;;5036177;28;20187;-70
2022/04/15 04:59:34;;;;;;;6.07;3.53;;;9.70;99.90;;;;;;5034086;28;20180;-70
2022/04/15 05:02:00;;;;;;;4.30;3.13;;;9.80;99.90;;;;;;5028039;28;20192;-70
2022/04/15 05:04:27;;;;;;;4.93;3.17;;;9.90;99.90;;;;;;5044728;28;20196;-70
2022/04/15 05:06:53;;;;;;;5.50;3.27;;;10.00;99.90;;;;;;5029814;28;20269;-70
2022/04/15 05:09:20;;;;;;;3.40;3.03;;;10.00;99.90;;;;;;5045189;28;20196;-70
2022/04/15 05:11:47;;;;;;;3.47;3.17;;;10.10;99.90;;;;;;5044132;28;20211;-70
2022/04/15 05:14:14;;;;;;;5.27;2.67;;;10.20;99.90;;;;;;5041472;28;20214;-70
2022/04/15 05:16:40;;;;;;;3.40;2.90;;;10.30;99.90;;;;;;5029676;28;20188;-70
2022/04/15 05:19:06;;;;;;;4.73;3.47;;;10.30;99.90;;;;;;5030030;28;20215;-70
2022/04/15 05:21:33;;;;;;;4.83;2.87;;;10.40;99.90;;;;;;5038518;28;20199;-70
2022/04/15 05:23:59;;;;;;;4.60;3.37;;;10.40;99.90;;;;;;5036272;28;20187;-70
2022/04/15 05:26:26;;;;;;;4.03;2.90;;;10.50;99.90;;;;;;5047696;28;20202;-71
2022/04/15 05:28:52;;;;;;;5.13;3.07;;;10.60;99.90;;;;;;5032941;28;20208;-70
2022/04/15 05:31:18;;;;;;;3.97;3.13;;;10.70;99.90;;;;;;5030293;28;20208;-71
2022/04/15 05:33:45;;;;;;;4.07;2.90;;;10.80;99.90;;;;;;5031161;28;20193;-69
2022/04/15 05:36:11;;;;;;;6.07;3.20;;;10.80;99.90;;;;;;5029803;28;20187;-70
2022/04/15 05:38:37;;;;;;;4.23;3.00;;;10.90;99.90;;;;;;5035585;28;20183;-71
2022/04/15 05:41:05;;;;;;;5.60;3.10;;;10.90;99.90;;;;;;5029215;28;20200;-71
2022/04/15 05:43:32;;;;;;;4.57;2.73;;;11.00;99.90;;;;;;5043714;28;20204;-71
2022/04/15 05:45:58;;;;;;;3.17;2.83;;;11.10;99.90;;;;;;5045055;28;20242;-71
2022/04/15 05:48:24;;;;;;;5.13;2.90;;;11.20;99.90;;;;;;5044110;28;20203;-70
2022/04/15 05:50:51;;;;;;;4.87;2.73;;;11.30;99.90;;;;;;5046106;28;20211;-70
2022/04/15 05:53:17;;;;;;;4.70;2.77;;;11.30;99.90;;;;;;5031270;28;20545;-70
2022/04/15 05:55:45;;;;;;;5.17;2.60;;;11.40;99.90;;;;;;5049258;28;20750;-70
2022/04/15 05:58:11;;;;;;;4.80;2.63;;;11.50;99.90;;;;;;5025233;28;20279;-70
2022/04/15 06:00:39;;;;;;;5.40;2.87;;;11.50;99.90;;;;;;5035935;28;20192;-70
2022/04/15 06:03:07;;;;;;;6.27;3.03;;;11.60;99.90;;;;;;5040085;28;20198;-70
2022/04/15 06:05:34;;;;;;;6.50;2.67;;;11.60;99.90;;;;;;5043439;28;20195;-70
2022/04/15 06:08:00;;;;;;;4.07;2.70;;;11.80;99.90;;;;;;5028004;28;20571;-70
2022/04/15 06:10:26;;;;;;;4.83;2.53;;;11.90;99.90;;;;;;5034774;28;20271;-70
2022/04/15 06:13:02;;;;;;;8.60;3.03;;;12.00;99.90;;;;;;5050446;28;20234;-70
2022/04/15 06:15:31;;;;;;;2.93;2.43;;;12.10;99.90;;;;;;5046367;28;20203;-70
2022/04/15 06:18:06;;;;;;;6.83;2.67;;;12.10;99.90;;;;;;5030828;28;20192;-71
2022/04/15 06:20:32;;;;;;;4.83;2.60;;;12.20;99.90;;;;;;5046117;28;20629;-71
2022/04/15 06:22:59;;;;;;;6.20;2.10;;;12.30;99.90;;;;;;5033536;28;20192;-70
2022/04/15 06:25:26;;;;;;;6.60;2.47;;;12.40;99.90;;;;;;5031915;28;20200;-70
2022/04/15 06:27:54;;;;;;;3.40;1.90;;;12.40;99.90;;;;;;5034912;28;20277;-70
2022/04/15 06:30:21;;;;;;;2.63;2.00;;;12.50;99.90;;;;;;5034684;28;20228;-71
2022/04/15 06:32:48;;;;;;;4.90;2.20;;;12.60;99.90;;;;;;5028261;28;20250;-70
2022/04/15 06:35:15;;;;;;;3.60;2.03;;;12.60;99.90;;;;;;5044281;28;20279;-71
2022/04/15 06:37:41;;;;;;;3.37;2.37;;;12.80;99.90;;;;;;5042994;28;20192;-70
2022/04/15 06:40:08;;;;;;;5.77;2.27;;;12.80;99.90;;;;;;5037578;28;20194;-71
2022/04/15 06:42:35;;;;;;;4.37;2.50;;;12.90;99.90;;;;;;5046881;28;20276;-70
2022/04/15 06:45:01;;;;;;;2.83;2.50;;;13.00;99.90;;;;;;5029807;28;20667;-71
2022/04/15 06:47:27;;;;;;;4.80;2.67;;;13.10;99.90;;;;;;5045413;28;20195;-71
2022/04/15 06:49:54;;;;;;;3.73;2.23;;;13.20;99.90;;;;;;5031103;28;20242;-71
2022/04/15 06:52:20;;;;;;;4.33;2.20;;;13.30;99.90;;;;;;5032822;28;20249;-70
2022/04/15 06:54:47;;;;;;;3.50;2.30;;;13.40;99.90;;;;;;5037125;28;20220;-70
2022/04/15 06:57:14;;;;;;;2.90;2.33;;;13.50;99.90;;;;;;5043045;28;20215;-71
2022/04/15 06:59:40;;;;;;;4.93;2.40;;;13.60;99.90;;;;;;5043541;28;21191;-71
2022/04/15 07:02:08;;;;;;;3.00;2.10;;;13.70;99.90;;;;;;5042474;28;20192;-70
2022/04/15 07:04:34;;;;;;;3.00;2.23;;;13.80;99.90;;;;;;5021334;28;20199;-70
2022/04/15 07:07:01;;;;;;;3.93;2.00;;;14.00;99.90;;;;;;5035135;28;20207;-71
2022/04/15 07:09:28;;;;;;;3.73;2.13;;;14.10;99.90;;;;;;5031536;28;20200;-71
2022/04/15 07:11:54;;;;;;;7.10;2.23;;;14.10;99.90;;;;;;5058840;28;20212;-71
2022/04/15 07:14:20;;;;;;;2.93;2.30;;;14.20;99.90;;;;;;5037719;28;20191;-70
2022/04/15 07:16:47;;;;;;;3.20;1.87;;;14.30;99.90;;;;;;5031280;28;20199;-71
2022/04/15 07:19:13;;;;;;;6.23;2.33;;;14.40;99.90;;;;;;5046430;28;20279;-71
2022/04/15 07:21:44;;;;;;;3.17;2.20;;;14.50;99.90;;;;;;5032907;28;20214;-71
2022/04/15 07:24:11;;;;;;;7.67;2.43;;;14.60;99.90;;;;;;5041106;28;20687;-71
2022/04/15 07:26:38;;;;;;;3.40;2.10;;;14.60;99.90;;;;;;5040908;28;20222;-71
2022/04/15 07:29:05;;;;;;;3.50;2.00;;;14.70;99.90;;;;;;5032192;28;20199;-71
2022/04/15 07:31:32;;;;;;;2.47;2.03;;;14.80;99.90;;;;;;5041169;28;20227;-71
2022/04/15 07:33:59;;;;;;;5.30;1.87;;;14.90;99.90;;;;;;5032037;28;20259;-71
2022/04/15 07:39:06;;;;;;;2.73;1.83;;;15.10;99.90;;;;;;5032734;28;20187;-71
2022/04/15 07:41:38;;;;;;;5.57;2.37;;;15.20;99.90;;;;;;5037246;28;20189;-71
2022/04/15 07:44:06;;;;;;;5.70;2.50;;;15.40;99.90;;;;;;5027740;28;20203;-72
2022/04/15 07:46:34;;;;;;;6.37;2.33;;;15.50;99.90;;;;;;5040619;28;20671;-71
2022/04/15 07:49:00;;;;;;;5.03;2.40;;;15.50;99.90;;;;;;5033614;28;20191;-71
2022/04/15 07:51:27;;;;;;;3.53;2.50;;;15.60;99.90;;;;;;5053527;28;20906;-71
2022/04/15 07:53:53;;;;;;;10.23;3.03;;;15.70;99.90;;;;;;5046964;28;20188;-71
2022/04/15 07:56:20;;;;;;;8.07;2.40;;;15.80;99.90;;;;;;5037186;28;20266;-71
2022/04/15 07:58:46;;;;;;;2.33;1.90;;;15.90;99.90;;;;;;5041934;28;20385;-71
2022/04/15 08:01:12;;;;;;;5.07;2.27;;;15.90;99.90;;;;;;5018558;28;20234;-71
2022/04/15 08:03:40;;;;;;;4.07;2.10;;;16.00;99.90;;;;;;5036035;28;20660;-71
2022/04/15 08:06:06;;;;;;;5.50;2.03;;;16.10;99.90;;;;;;5032606;28;20196;-71
2022/04/15 08:08:34;;;;;;;4.57;1.87;;;16.10;99.90;;;;;;5044811;28;20202;-70
2022/04/15 08:11:01;;;;;;;8.67;2.30;;;16.20;99.90;;;;;;5027717;28;20212;-71
2022/04/15 08:13:28;;;;;;;4.83;2.07;;;16.30;99.90;;;;;;5041266;28;20187;-71
2022/04/15 08:15:55;;;;;;;3.00;1.90;;;16.40;99.90;;;;;;5031928;28;20227;-70
2022/04/15 08:18:24;;;;;;;4.80;2.27;;;16.50;99.90;;;;;;5033220;28;20188;-70
2022/04/15 08:20:53;;;;;;;2.87;1.90;;;16.60;99.90;;;;;;5056835;28;20273;-71
2022/04/15 08:23:23;;;;;;;5.50;2.23;;;16.70;99.90;;;;;;5030242;28;20187;-71
2022/04/15 08:25:50;;;;;;;5.43;2.20;;;16.80;99.90;;;;;;5041456;28;20230;-71
2022/04/15 08:28:17;;;;;;;6.80;2.00;;;16.80;99.90;;;;;;5042060;28;20188;-69
2022/04/15 08:30:43;;;;;;;8.30;2.50;;;16.90;99.90;;;;;;5027335;28;20210;-68
2022/04/15 08:33:10;;;;;;;3.90;1.90;;;16.90;99.90;;;;;;5043246;28;20211;-69
2022/04/15 08:35:37;;;;;;;3.87;1.80;;;17.00;99.90;;;;;;5031940;28;20184;-68
2022/04/15 08:38:05;;;;;;;2.27;1.83;;;17.10;99.90;;;;;;5048506;28;20667;-68
2022/04/15 08:40:35;;;;;;;4.03;2.20;;;17.30;99.90;;;;;;5043597;28;20195;-68
2022/04/15 08:43:04;;;;;;;3.37;1.97;;;17.40;99.90;;;;;;5048078;28;20897;-69
2022/04/15 08:45:39;;;;;;;4.40;1.90;;;17.50;99.90;;;;;;5054067;28;20287;-69
2022/04/15 08:48:06;;;;;;;2.03;1.57;;;17.60;99.90;;;;;;5041778;28;20183;-68
2022/04/15 08:50:33;;;;;;;6.27;1.83;;;17.70;99.90;;;;;;5019573;28;20267;-69
2022/04/15 08:53:02;;;;;;;4.83;1.60;;;17.70;99.90;;;;;;5035825;28;20321;-69
2022/04/15 08:55:29;;;;;;;5.47;1.70;;;17.90;99.90;;;;;;5049865;28;20211;-69
2022/04/15 08:57:57;;;;;;;3.27;1.50;;;17.90;99.90;;;;;;5033553;28;20187;-68
2022/04/15 09:00:25;;;;;;;4.27;1.80;;;17.90;99.90;;;;;;5024073;28;20223;-69
2022/04/15 09:02:54;;;;;;;4.03;1.87;;;18.10;99.90;;;;;;5035659;28;20689;-69
2022/04/15 09:05:25;;;;;;;6.47;1.87;;;18.10;99.90;;;;;;5033118;28;20234;-69
2022/04/15 09:08:07;;;;;;;5.87;2.00;;;18.20;99.90;;;;;;5039531;28;20259;-68
2022/04/15 09:10:35;;;;;;;3.27;2.00;;;18.40;99.90;;;;;;5031697;28;20180;-68
2022/04/15 09:13:03;;;;;;;3.20;2.10;;;18.50;99.90;;;;;;5036497;28;20250;-69
2022/04/15 09:15:31;;;;;;;5.80;1.90;;;18.60;99.90;;;;;;5032177;28;20196;-69
2022/04/15 09:18:00;;;;;;;7.30;1.93;;;18.60;99.90;;;;;;5048123;28;20663;-69
2022/04/15 09:20:33;;;;;;;4.30;2.00;;;18.70;99.90;;;;;;5038777;28;20220;-68
2022/04/15 09:23:10;;;;;;;4.13;1.83;;;18.90;99.90;;;;;;5032276;28;20210;-68
2022/04/15 09:25:39;;;;;;;4.00;1.60;;;19.00;99.90;;;;;;5043897;28;20188;-68
2022/04/15 09:28:06;;;;;;;4.63;1.83;;;19.10;99.90;;;;;;5032953;28;20190;-69
2022/04/15 09:30:41;;;;;;;4.37;1.70;;;19.20;99.90;;;;;;5032690;28;20274;-69
2022/04/15 09:33:11;;;;;;;6.93;2.30;;;19.30;99.90;;;;;;5030994;28;20215;-69
2022/04/15 09:35:44;;;;;;;2.87;1.73;;;19.40;99.90;;;;;;5038682;28;20655;-69
2022/04/15 09:38:10;;;;;;;7.20;2.00;;;19.50;99.90;;;;;;5029505;28;20243;-69
2022/04/15 09:40:37;;;;;;;3.67;1.83;;;19.60;99.90;;;;;;5011974;28;20619;-69
2022/04/15 09:43:06;;;;;;;2.30;1.53;;;19.60;99.90;;;;;;5029904;28;20188;-71
2022/04/15 09:45:36;;;;;;;4.27;1.80;;;19.80;99.90;;;;;;5027361;28;20192;-69
2022/04/15 09:48:09;;;;;;;5.60;2.00;;;20.00;99.90;;;;;;5032763;28;20184;-69
2022/04/15 09:50:41;;;;;;;4.90;1.90;;;20.20;99.90;;;;;;5033151;28;20207;-68
2022/04/15 09:53:17;;;;;;;4.17;1.90;;;20.30;99.90;;;;;;5032167;28;20253;-70
2022/04/15 09:55:51;;;;;;;4.20;2.00;;;20.40;99.90;;;;;;5044240;28;20198;-71
2022/04/15 09:58:21;;;;;;;7.30;1.73;;;20.40;99.90;;;;;;5025929;28;20283;-71
2022/04/15 10:00:53;;;;;;;4.70;2.00;;;20.40;99.90;;;;;;5039489;28;20198;-72
2022/04/15 10:03:23;;;;;;;4.60;2.00;;;20.40;99.90;;;;;;5034233;28;20865;-71
2022/04/15 10:05:51;;;;;;;5.67;1.80;;;20.50;99.90;;;;;;5033894;28;20335;-71
2022/04/15 10:08:25;;;;;;;5.07;2.13;;;20.50;99.90;;;;;;5047473;28;20192;-72
2022/04/15 10:10:55;;;;;;;4.03;1.90;;;20.60;99.90;;;;;;5032410;28;20184;-72
2022/04/15 10:13:28;;;;;;;5.50;1.87;;;20.70;99.90;;;;;;5018523;28;20303;-71
2022/04/15 10:15:56;;;;;;;3.23;1.73;;;20.80;99.90;;;;;;5013185;28;20196;-71
2022/04/15 10:18:27;;;;;;;3.83;2.03;;;20.90;99.90;;;;;;5014094;28;20219;-72
2022/04/15 10:20:53;;;;;;;4.27;1.93;;;21.00;99.90;;;;;;5045148;28;20184;-71
2022/04/15 10:23:22;;;;;;;4.20;1.83;;;21.00;99.90;;;;;;5048769;28;20179;-71
2022/04/15 10:25:52;;;;;;;3.77;1.70;;;20.90;99.90;;;;;;5043473;28;20237;-71
2022/04/15 10:28:23;;;;;;;4.00;2.10;;;20.90;99.90;;;;;;5048025;28;20195;-72
2022/04/15 10:31:11;;;;;;;6.67;2.00;;;20.80;99.90;;;;;;5041177;28;20567;-71
2022/04/15 10:33:42;;;;;;;4.73;1.90;;;20.80;99.90;;;;;;5043353;28;20199;-71
2022/04/15 10:36:24;;;;;;;2.70;1.73;;;20.60;99.90;;;;;;5029843;28;20296;-72
2022/04/15 10:39:09;;;;;;;5.40;1.80;;;20.60;99.90;;;;;;5049529;28;20187;-69
2022/04/15 10:41:41;;;;;;;6.33;2.00;;;20.60;99.90;;;;;;5029227;28;20216;-69
2022/04/15 10:44:12;;;;;;;4.47;1.97;;;20.60;99.90;;;;;;5028745;28;20199;-71
2022/04/15 10:46:38;;;;;;;3.60;1.70;;;20.40;99.90;;;;;;5060097;28;20668;-71
2022/04/15 10:49:23;;;;;;;2.57;1.50;;;20.40;99.90;;;;;;5016829;28;20186;-72
2022/04/15 10:51:57;;;;;;;6.17;1.53;;;20.50;99.90;;;;;;5040067;28;20215;-69
2022/04/15 10:54:38;;;;;;;3.17;1.50;;;20.40;99.90;;;;;;5038565;28;20298;-69
2022/04/15 10:57:10;;;;;;;5.03;1.80;;;20.40;99.90;;;;;;5039604;28;20191;-69
2022/04/15 11:02:46;;;;;;;10.47;1.80;;;20.30;99.90;;;;;;5044676;28;20188;-69
2022/04/15 11:05:35;;;;;;;4.00;1.70;;;20.20;99.90;;;;;;5044413;28;20236;-69
2022/04/15 11:08:14;;;;;;;5.93;1.93;;;20.20;99.90;;;;;;5033537;28;20195;-69
2022/04/15 11:10:44;;;;;;;2.80;1.57;;;20.10;99.90;;;;;;5025058;28;20193;-69
2022/04/15 11:13:39;;;;;;;12.07;1.70;;;20.00;99.90;;;;;;5036981;28;20195;-68
2022/04/15 11:16:11;;;;;;;2.30;1.53;;;20.00;99.90;;;;;;5044159;28;20182;-71
2022/04/15 11:19:00;;;;;;;3.80;1.80;;;20.00;99.90;;;;;;5044364;28;20188;-71
2022/04/15 11:21:35;;;;;;;6.30;2.13;;;20.00;99.90;;;;;;5032974;28;20200;-72
2022/04/15 11:24:11;;;;;;;5.87;1.63;;;19.90;99.90;;;;;;5033935;28;20190;-70
2022/04/15 11:26:43;;;;;;;4.00;1.83;;;19.90;99.90;;;;;;5029706;28;21572;-69
2022/04/15 11:29:12;;;;;;;4.07;1.50;;;19.90;99.90;;;;;;5034788;28;20188;-70
2022/04/15 11:31:49;;;;;;;4.33;1.90;;;19.90;99.90;;;;;;5028504;28;20265;-70
2022/04/15 11:34:20;;;;;;;3.57;1.70;;;20.00;99.90;;;;;;5031327;28;20378;-70
2022/04/15 11:36:49;;;;;;;3.27;1.60;;;20.00;99.90;;;;;;5032314;28;20188;-69
2022/04/15 11:39:22;;;;;;;3.27;1.50;;;20.00;99.90;;;;;;5031069;28;20639;-69
2022/04/15 11:41:54;;;;;;;2.80;1.50;;;20.00;99.90;;;;;;5033241;28;20227;-69
2022/04/15 11:44:27;;;;;;;3.60;1.70;;;20.00;99.90;;;;;;5039427;28;20200;-69
2022/04/15 11:46:54;;;;;;;2.30;1.40;;;20.00;99.90;;;;;;5035875;28;20194;-69
2022/04/15 11:49:27;;;;;;;4.90;1.60;;;19.90;99.90;;;;;;5046031;28;20184;-69
2022/04/15 11:51:59;;;;;;;4.73;1.80;;;20.00;99.90;;;;;;5044930;28;20211;-69
2022/04/15 11:54:35;;;;;;;5.40;1.80;;;20.00;99.90;;;;;;5036402;28;20203;-69
2022/04/15 11:57:04;;;;;;;3.00;1.70;;;20.00;99.90;;;;;;5042648;28;20175;-69
2022/04/15 11:59:42;;;;;;;5.83;1.80;;;20.10;99.90;;;;;;5039106;28;20180;-69
2022/04/15 12:02:14;;;;;;;2.97;1.47;;;20.00;99.90;;;;;;5036547;28;20203;-69
2022/04/15 12:04:55;;;;;;;3.67;1.90;;;20.00;99.90;;;;;;5038577;28;20188;-69
2022/04/15 12:07:23;;;;;;;2.13;1.50;;;20.00;99.90;;;;;;5039226;28;20559;-71
2022/04/15 12:09:51;;;;;;;7.13;1.80;;;20.10;99.90;;;;;;5034076;28;20241;-72
2022/04/15 12:12:20;;;;;;;4.93;2.00;;;20.10;99.90;;;;;;5051357;28;20210;-71
2022/04/15 12:14:53;;;;;;;2.40;1.40;;;20.10;99.90;;;;;;5026818;28;20250;-72
2022/04/15 12:17:21;;;;;;;3.53;1.50;;;20.10;99.90;;;;;;5039777;28;20203;-72
2022/04/15 12:19:49;;;;;;;3.73;1.50;;;20.10;99.90;;;;;;5039784;28;20183;-71
2022/04/15 12:22:16;;;;;;;3.30;1.47;;;20.10;99.90;;;;;;5036563;28;20190;-71
2022/04/15 12:24:43;;;;;;;6.37;1.90;;;20.10;99.90;;;;;;5030546;28;20184;-71
2022/04/15 12:27:16;;;;;;;2.77;1.80;;;20.20;99.90;;;;;;5029340;28;20788;-71
2022/04/15 12:29:51;;;;;;;5.17;2.00;;;20.30;99.90;;;;;;5029128;28;20200;-71
2022/04/15 12:32:29;;;;;;;5.70;2.00;;;20.30;99.90;;;;;;5033925;28;20214;-72
2022/04/15 12:34:55;;;;;;;3.13;1.63;;;20.30;99.90;;;;;;5034434;28;20188;-71
2022/04/15 12:37:53;;;;;;;4.30;1.80;;;20.20;99.90;;;;;;5032280;28;20944;-72
2022/04/15 12:40:20;;;;;;;7.70;1.87;;;20.20;99.90;;;;;;5036155;28;20180;-72
2022/04/15 12:42:49;;;;;;;6.30;1.67;;;20.20;99.90;;;;;;5035902;28;20861;-71
2022/04/15 12:45:21;;;;;;;3.30;1.70;;;20.20;99.90;;;;;;5016512;28;20659;-71
2022/04/15 12:48:10;;;;;;;6.30;1.70;;;20.20;99.90;;;;;;5032674;28;20188;-71
2022/04/15 12:50:39;;;;;;;7.13;1.70;;;20.20;99.90;;;;;;5023969;28;20199;-72
2022/04/15 12:53:20;;;;;;;5.87;1.73;;;20.20;99.90;;;;;;5041446;28;20215;-71
2022/04/15 12:55:48;;;;;;;3.70;1.70;;;20.20;99.90;;;;;;5032271;28;20196;-72
2022/04/15 12:58:29;;;;;;;3.40;1.67;;;20.10;99.90;;;;;;5032361;28;20176;-71
2022/04/15 13:00:59;;;;;;;8.10;1.70;;;20.20;99.90;;;;;;5028417;28;20296;-71
2022/04/15 13:03:34;;;;;;;2.73;1.70;;;20.10;99.90;;;;;;5047356;28;20249;-71